createdAt,value
2023-03-26T00:01:19.792Z,28.38
2023-03-26T00:03:46.248Z,26.83
2023-03-26T00:06:15.289Z,34.75
2023-03-26T00:08:43.384Z,31.27
2023-03-26T00:11:11.470Z,30.90
2023-03-26T00:13:39.627Z,41.05
2023-03-26T00:16:07.754Z,48.38
2023-03-26T00:18:34.246Z,32.67
2023-03-26T00:21:05.674Z,43.60
2023-03-26T00:23:33.894Z,37.60
2023-03-26T00:26:00.844Z,38.80
2023-03-26T00:28:27.607Z,32.92
2023-03-26T00:30:59.766Z,41.38
2023-03-26T00:33:26.372Z,37.70
2023-03-26T00:35:54.881Z,45.28
2023-03-26T00:38:23.031Z,45.25
2023-03-26T00:40:50.501Z,37.45
2023-03-26T00:43:21.309Z,46.78
2023-03-26T00:45:52.419Z,41.40
2023-03-26T00:48:20.830Z,37.03
2023-03-26T00:50:48.873Z,48.10
2023-03-26T00:53:17.167Z,42.63
2023-03-26T00:55:45.689Z,40.33
2023-03-26T00:58:13.274Z,35.57
2023-03-26T01:00:47.524Z,38.65
2023-03-26T01:03:27.596Z,43.13
2023-03-26T01:05:59.318Z,37.50
2023-03-26T01:08:31.256Z,34.08
2023-03-26T01:11:02.719Z,40.43
2023-03-26T01:13:33.248Z,40.15
2023-03-26T01:16:00.848Z,36.33
2023-03-26T01:18:32.177Z,44.50
2023-03-26T01:20:58.693Z,37.58
2023-03-26T01:23:37.392Z,48.30
2023-03-26T01:26:31.637Z,40.95
2023-03-26T01:29:02.359Z,45.00
2023-03-26T01:31:39.443Z,47.92
2023-03-26T01:34:08.648Z,45.47
2023-03-26T01:36:50.378Z,48.90
2023-03-26T01:39:29.278Z,37.83
2023-03-26T01:42:02.641Z,43.42
2023-03-26T01:44:43.638Z,28.15
2023-03-26T01:47:12.390Z,29.85
2023-03-26T01:49:38.947Z,37.93
2023-03-26T01:52:14.983Z,40.70
2023-03-26T01:54:41.601Z,53.28
2023-03-26T01:57:16.844Z,43.22
2023-03-26T02:00:04.827Z,56.42
2023-03-26T02:02:51.614Z,51.17
2023-03-26T02:05:57.173Z,57.80
2023-03-26T02:08:38.700Z,43.88
2023-03-26T02:11:09.831Z,49.08
2023-03-26T02:13:38.673Z,42.38
2023-03-26T02:16:09.589Z,42.97
2023-03-26T02:18:36.292Z,49.72
2023-03-26T02:21:24.442Z,37.67
2023-03-26T02:23:54.085Z,42.58
2023-03-26T02:26:20.566Z,40.63
2023-03-26T02:28:47.105Z,47.73
2023-03-26T02:31:14.018Z,43.22
2023-03-26T02:33:40.548Z,51.15
2023-03-26T02:36:07.803Z,37.58
2023-03-26T02:38:34.909Z,40.90
2023-03-26T02:41:02.639Z,42.97
2023-03-26T02:43:29.214Z,33.35
2023-03-26T02:45:56.147Z,41.85
2023-03-26T02:48:23.133Z,42.92
2023-03-26T02:50:50.205Z,45.22
2023-03-26T02:53:16.942Z,50.40
2023-03-26T02:55:43.453Z,30.48
2023-03-26T02:58:10.430Z,30.13
2023-03-26T03:00:36.905Z,27.50
2023-03-26T03:03:04.059Z,47.22
2023-03-26T03:05:33.730Z,45.27
2023-03-26T03:08:00.414Z,43.63
2023-03-26T03:10:27.676Z,45.65
2023-03-26T03:12:54.784Z,41.45
2023-03-26T03:15:21.396Z,42.50
2023-03-26T03:17:48.408Z,44.60
2023-03-26T03:20:15.064Z,44.38
2023-03-26T03:22:41.555Z,52.55
2023-03-26T03:25:09.321Z,41.67
2023-03-26T03:27:36.041Z,50.22
2023-03-26T03:30:02.518Z,52.97
2023-03-26T03:32:29.058Z,51.72
2023-03-26T03:34:55.686Z,39.90
2023-03-26T03:37:22.201Z,48.22
2023-03-26T03:39:48.772Z,58.17
2023-03-26T03:42:15.300Z,53.93
2023-03-26T03:44:41.762Z,33.63
2023-03-26T03:47:08.323Z,37.58
2023-03-26T03:49:34.901Z,57.30
2023-03-26T03:52:01.399Z,42.53
2023-03-26T03:54:27.941Z,51.43
2023-03-26T03:56:54.557Z,57.33
2023-03-26T03:59:21.062Z,42.08
2023-03-26T04:01:47.550Z,58.30
2023-03-26T04:04:14.224Z,37.65
2023-03-26T04:06:40.718Z,47.57
2023-03-26T04:09:07.201Z,43.45
2023-03-26T04:11:33.668Z,42.65
2023-03-26T04:14:00.275Z,55.80
2023-03-26T04:16:26.728Z,58.72
2023-03-26T04:18:53.253Z,37.00
2023-03-26T04:21:19.755Z,34.47
2023-03-26T04:23:46.226Z,33.72
2023-03-26T04:26:16.605Z,26.27
2023-03-26T04:28:47.904Z,40.78
2023-03-26T04:31:18.514Z,36.50
2023-03-26T04:33:47.070Z,36.60
2023-03-26T04:36:15.795Z,40.67
2023-03-26T04:38:44.979Z,50.05
2023-03-26T04:41:13.331Z,52.92
2023-03-26T04:43:39.815Z,61.10
2023-03-26T04:46:06.694Z,49.50
2023-03-26T04:48:33.251Z,60.78
2023-03-26T04:50:59.743Z,47.15
2023-03-26T04:53:26.349Z,41.83
2023-03-26T04:56:14.337Z,38.40
2023-03-26T04:58:40.968Z,33.08
2023-03-26T05:01:10.262Z,62.55
2023-03-26T05:03:37.795Z,60.78
2023-03-26T05:06:04.565Z,57.95
2023-03-26T05:08:31.062Z,44.07
2023-03-26T05:10:57.807Z,43.83
2023-03-26T05:13:24.541Z,48.97
2023-03-26T05:15:51.419Z,60.20
2023-03-26T05:18:17.987Z,44.50
2023-03-26T05:20:44.599Z,63.00
2023-03-26T05:23:11.236Z,46.72
2023-03-26T05:25:37.705Z,30.98
2023-03-26T05:28:04.453Z,33.78
2023-03-26T05:30:30.947Z,44.88
2023-03-26T05:32:57.449Z,64.50
2023-03-26T05:35:24.172Z,69.68
2023-03-26T05:37:50.630Z,52.88
2023-03-26T05:40:17.392Z,43.05
2023-03-26T05:42:44.653Z,43.53
2023-03-26T05:45:13.131Z,49.60
2023-03-26T05:47:40.017Z,48.45
2023-03-26T05:50:07.602Z,29.80
2023-03-26T05:52:34.257Z,62.70
2023-03-26T05:55:01.002Z,56.03
2023-03-26T05:57:30.352Z,48.70
2023-03-26T05:59:56.853Z,36.28
2023-03-26T06:02:23.406Z,51.25
2023-03-26T06:04:50.210Z,46.47
2023-03-26T06:07:17.390Z,49.53
2023-03-26T06:09:44.377Z,41.43
2023-03-26T06:12:11.463Z,40.88
2023-03-26T06:14:38.167Z,45.75
2023-03-26T06:17:04.653Z,39.35
2023-03-26T06:19:31.182Z,54.97
2023-03-26T06:21:57.718Z,47.63
2023-03-26T06:24:24.281Z,40.60
2023-03-26T06:26:50.843Z,49.10
2023-03-26T06:29:17.321Z,43.50
2023-03-26T06:31:43.818Z,40.90
2023-03-26T06:34:10.618Z,41.57
2023-03-26T06:36:37.325Z,36.72
2023-03-26T06:39:07.728Z,34.72
2023-03-26T06:41:36.036Z,42.70
2023-03-26T06:44:02.542Z,49.75
2023-03-26T06:46:29.267Z,25.07
2023-03-26T06:48:55.952Z,42.67
2023-03-26T06:51:22.505Z,30.92
2023-03-26T06:53:48.983Z,37.10
2023-03-26T06:56:15.576Z,29.45
2023-03-26T06:58:42.063Z,28.43
2023-03-26T07:01:08.653Z,46.60
2023-03-26T07:03:35.481Z,42.60
2023-03-26T07:06:02.074Z,40.60
2023-03-26T07:08:28.609Z,30.10
2023-03-26T07:10:55.424Z,22.57
2023-03-26T07:13:22.150Z,30.40
2023-03-26T07:15:49.202Z,35.67
2023-03-26T07:18:15.747Z,37.83
2023-03-26T07:20:44.747Z,28.92
2023-03-26T07:23:12.348Z,33.93
2023-03-26T07:25:39.337Z,38.60
2023-03-26T07:28:10.946Z,36.85
2023-03-26T07:31:04.621Z,28.48
2023-03-26T07:33:34.067Z,23.48
2023-03-26T07:36:16.017Z,36.33
2023-03-26T07:38:59.134Z,31.02
2023-03-26T07:41:38.024Z,33.83
2023-03-26T07:44:12.913Z,25.05
2023-03-26T07:46:39.677Z,32.53
2023-03-26T07:49:06.514Z,28.07
2023-03-26T07:51:33.485Z,26.85
2023-03-26T07:54:00.704Z,32.05
2023-03-26T07:56:38.710Z,29.60
2023-03-26T07:59:36.365Z,30.35
2023-03-26T08:02:21.239Z,29.60
2023-03-26T08:05:24.028Z,32.30
2023-03-26T08:07:59.849Z,32.40
2023-03-26T08:10:30.426Z,32.00
2023-03-26T08:13:25.200Z,31.02
2023-03-26T08:16:01.543Z,33.57
2023-03-26T08:18:40.111Z,27.38
2023-03-26T08:21:22.396Z,31.70
2023-03-26T08:24:12.743Z,37.92
2023-03-26T08:26:59.525Z,33.25
2023-03-26T08:29:38.183Z,35.17
2023-03-26T08:32:12.822Z,31.58
2023-03-26T08:34:39.332Z,37.67
2023-03-26T08:37:05.816Z,23.23
2023-03-26T08:39:32.408Z,30.40
2023-03-26T08:42:26.511Z,32.03
2023-03-26T08:45:11.863Z,29.70
2023-03-26T08:48:03.499Z,27.27
2023-03-26T08:50:39.127Z,30.55
2023-03-26T08:53:23.754Z,38.53
2023-03-26T08:56:06.489Z,40.03
2023-03-26T08:58:45.225Z,30.85
2023-03-26T09:01:30.037Z,34.55
2023-03-26T09:04:21.296Z,27.83
2023-03-26T09:07:06.496Z,34.53
2023-03-26T09:09:57.780Z,36.27
2023-03-26T09:12:54.448Z,33.70
2023-03-26T09:15:35.967Z,28.60
2023-03-26T09:18:35.934Z,29.08
2023-03-26T09:21:46.201Z,33.05
2023-03-26T09:24:38.862Z,34.70
2023-03-26T09:27:15.782Z,27.02
2023-03-26T09:30:16.455Z,25.70
2023-03-26T09:32:48.785Z,28.15
2023-03-26T09:35:55.729Z,29.40
2023-03-26T09:38:34.172Z,36.33
2023-03-26T09:41:06.770Z,27.40
2023-03-26T09:43:55.846Z,35.30
2023-03-26T09:47:05.346Z,35.53
2023-03-26T09:49:48.622Z,30.45
2023-03-26T09:52:18.130Z,26.27
2023-03-26T09:54:56.628Z,35.83
2023-03-26T09:57:31.974Z,33.58
2023-03-26T10:00:19.865Z,30.75
2023-03-26T10:03:04.528Z,32.25
2023-03-26T10:05:57.697Z,37.40
2023-03-26T10:08:55.759Z,36.70
2023-03-26T10:11:37.728Z,35.05
2023-03-26T10:14:20.463Z,37.05
2023-03-26T10:17:10.847Z,44.30
2023-03-26T10:19:49.004Z,42.73
2023-03-26T10:22:33.499Z,40.15
2023-03-26T10:25:14.917Z,42.50
2023-03-26T10:27:50.683Z,31.20
2023-03-26T10:30:35.420Z,36.08
2023-03-26T10:33:38.898Z,34.43
2023-03-26T10:36:05.417Z,44.45
2023-03-26T10:38:34.939Z,34.42
2023-03-26T10:41:24.578Z,44.10
2023-03-26T10:44:08.399Z,41.08
2023-03-26T10:46:53.638Z,36.30
2023-03-26T10:49:46.226Z,49.03
2023-03-26T10:52:15.710Z,40.90
2023-03-26T10:54:56.819Z,44.05
2023-03-26T10:57:45.783Z,39.17
2023-03-26T11:00:24.342Z,42.30
2023-03-26T11:03:05.872Z,43.17
2023-03-26T11:05:59.958Z,33.30
2023-03-26T11:09:03.377Z,43.15
2023-03-26T11:11:42.551Z,32.90
2023-03-26T11:14:31.853Z,44.80
2023-03-26T11:17:14.830Z,40.67
2023-03-26T11:20:05.414Z,38.53
2023-03-26T11:22:37.617Z,37.17
2023-03-26T11:25:34.792Z,39.05
2023-03-26T11:28:13.993Z,31.90
2023-03-26T11:31:04.237Z,32.92
2023-03-26T11:33:46.016Z,39.72
2023-03-26T11:36:37.661Z,40.05
2023-03-26T11:39:09.180Z,40.20
2023-03-26T11:41:35.682Z,34.73
2023-03-26T11:44:13.074Z,31.33
2023-03-26T11:46:43.954Z,35.20
2023-03-26T11:49:17.087Z,35.55
2023-03-26T11:51:46.016Z,39.97
2023-03-26T11:54:13.231Z,41.03
2023-03-26T11:57:05.754Z,39.90
2023-03-26T11:59:56.480Z,36.08
2023-03-26T12:02:37.210Z,31.23
2023-03-26T12:05:15.794Z,36.75
2023-03-26T12:07:45.770Z,29.77
2023-03-26T12:10:40.829Z,24.20
2023-03-26T12:13:51.106Z,33.20
2023-03-26T12:16:21.433Z,43.10
2023-03-26T12:19:02.966Z,34.05
2023-03-26T12:21:29.834Z,38.97
2023-03-26T12:24:04.473Z,27.17
2023-03-26T12:26:39.963Z,32.47
2023-03-26T12:29:10.305Z,38.05
2023-03-26T12:31:48.981Z,21.30
2023-03-26T12:34:18.752Z,30.63
2023-03-26T12:36:52.199Z,30.65
2023-03-26T12:40:08.989Z,28.40
2023-03-26T12:44:49.932Z,32.15
2023-03-26T12:45:22.211Z,22.52
2023-03-26T12:47:58.246Z,33.00
2023-03-26T12:50:58.076Z,25.92
2023-03-26T12:53:50.175Z,28.65
2023-03-26T12:56:31.584Z,34.85
2023-03-26T12:59:09.956Z,27.60
2023-03-26T13:01:41.565Z,25.63
2023-03-26T13:04:51.897Z,27.85
2023-03-26T13:07:36.886Z,21.52
2023-03-26T13:10:30.053Z,23.42
2023-03-26T13:13:27.607Z,27.65
2023-03-26T13:16:00.775Z,31.70
2023-03-26T13:19:12.289Z,21.65
2023-03-26T13:21:51.251Z,24.30
2023-03-26T13:24:40.991Z,31.45
2023-03-26T13:27:30.634Z,21.75
2023-03-26T13:30:02.858Z,16.27
2023-03-26T13:32:44.676Z,25.92
2023-03-26T13:35:23.125Z,26.38
2023-03-26T13:38:01.435Z,24.50
2023-03-26T13:41:00.216Z,19.42
2023-03-26T13:43:26.634Z,18.20
2023-03-26T13:45:53.127Z,21.52
2023-03-26T13:48:25.568Z,23.95
2023-03-26T13:51:12.766Z,25.02
2023-03-26T13:53:55.776Z,19.25
2023-03-26T13:56:29.628Z,21.20
2023-03-26T13:59:08.905Z,14.98
2023-03-26T14:01:41.809Z,19.70
2023-03-26T14:04:18.884Z,17.88
2023-03-26T14:06:52.645Z,14.45
2023-03-26T14:09:25.203Z,24.43
2023-03-26T14:12:02.737Z,27.45
2023-03-26T14:14:57.205Z,22.02
2023-03-26T14:17:48.540Z,17.95
2023-03-26T14:20:17.907Z,26.83
2023-03-26T14:22:44.333Z,19.83
2023-03-26T14:25:28.416Z,20.27
2023-03-26T14:28:06.547Z,14.40
2023-03-26T14:30:54.610Z,18.45
2023-03-26T14:33:52.385Z,20.92
2023-03-26T14:36:30.747Z,29.37
2023-03-26T14:39:39.400Z,19.45
2023-03-26T14:42:19.189Z,14.13
2023-03-26T14:44:51.629Z,19.25
2023-03-26T14:47:23.075Z,14.77
2023-03-26T14:50:14.203Z,14.50
2023-03-26T14:52:52.205Z,17.17
2023-03-26T14:55:54.271Z,14.07
2023-03-26T14:58:51.262Z,18.20
2023-03-26T15:01:21.815Z,14.90
2023-03-26T15:04:09.906Z,18.87
2023-03-26T15:06:57.889Z,19.95
2023-03-26T15:09:33.331Z,18.83
2023-03-26T15:12:24.609Z,20.33
2023-03-26T15:15:25.067Z,17.10
2023-03-26T15:18:09.163Z,23.13
2023-03-26T15:20:53.903Z,19.52
2023-03-26T15:23:49.406Z,14.98
2023-03-26T15:26:37.703Z,17.40
2023-03-26T15:29:44.102Z,21.17
2023-03-26T15:32:37.694Z,12.00
2023-03-26T15:35:30.111Z,17.73
2023-03-26T15:38:14.866Z,21.48
2023-03-26T15:40:55.572Z,15.02
2023-03-26T15:43:22.997Z,13.02
2023-03-26T15:46:24.352Z,13.37
2023-03-26T15:49:02.914Z,21.05
2023-03-26T15:51:29.359Z,14.63
2023-03-26T15:54:14.749Z,16.77
2023-03-26T15:57:16.682Z,22.23
2023-03-26T16:00:02.168Z,16.37
2023-03-26T16:03:06.131Z,12.55
2023-03-26T16:05:47.290Z,14.25
2023-03-26T16:08:41.361Z,14.63
2023-03-26T16:11:09.849Z,15.57
2023-03-26T16:13:38.399Z,18.60
2023-03-26T16:16:05.000Z,17.95
2023-03-26T16:18:33.207Z,17.90
2023-03-26T16:21:36.107Z,15.73
2023-03-26T16:24:02.723Z,19.88
2023-03-26T16:26:40.037Z,13.40
2023-03-26T16:29:20.241Z,22.40
2023-03-26T16:32:31.557Z,19.60
2023-03-26T16:35:01.299Z,10.88
2023-03-26T16:37:34.082Z,12.18
2023-03-26T16:40:18.808Z,14.53
2023-03-26T16:43:28.774Z,19.02
2023-03-26T16:46:13.213Z,17.33
2023-03-26T16:48:51.010Z,15.40
2023-03-26T16:51:35.541Z,21.40
2023-03-26T16:54:08.084Z,13.50
2023-03-26T16:56:56.924Z,12.70
2023-03-26T16:59:37.731Z,16.52
2023-03-26T17:02:20.062Z,16.92
2023-03-26T17:04:51.521Z,15.52
2023-03-26T17:07:41.084Z,16.03
2023-03-26T17:10:32.773Z,9.63
2023-03-26T17:13:08.881Z,17.52
2023-03-26T17:16:01.218Z,16.52
2023-03-26T17:18:33.742Z,20.58
2023-03-26T17:21:12.014Z,17.47
2023-03-26T17:24:05.528Z,21.95
2023-03-26T17:26:43.957Z,15.00
2023-03-26T17:29:19.535Z,20.55
2023-03-26T17:32:00.300Z,16.75
2023-03-26T17:35:02.085Z,19.23
2023-03-26T17:37:35.230Z,17.70
2023-03-26T17:40:01.664Z,22.73
2023-03-26T17:42:30.879Z,18.10
2023-03-26T17:45:16.786Z,14.32
2023-03-26T17:48:01.990Z,13.33
2023-03-26T17:50:50.252Z,17.08
2023-03-26T17:53:24.941Z,14.52
2023-03-26T17:55:52.315Z,14.40
2023-03-26T17:58:35.978Z,15.77
2023-03-26T18:01:05.503Z,10.70
2023-03-26T18:03:50.735Z,11.60
2023-03-26T18:06:34.959Z,12.07
2023-03-26T18:09:09.733Z,9.88
2023-03-26T18:11:49.665Z,9.25
2023-03-26T18:14:37.580Z,14.37
2023-03-26T18:17:05.079Z,13.07
2023-03-26T18:19:53.262Z,14.10
2023-03-26T18:22:24.304Z,13.65
2023-03-26T18:24:51.596Z,12.88
2023-03-26T18:27:22.399Z,10.60
2023-03-26T18:29:57.645Z,8.02
2023-03-26T18:32:31.710Z,12.77
2023-03-26T18:35:17.127Z,13.25
2023-03-26T18:37:44.232Z,11.25
2023-03-26T18:40:13.934Z,12.93
2023-03-26T18:42:43.577Z,9.00
2023-03-26T18:45:24.824Z,12.32
2023-03-26T18:47:57.873Z,12.10
2023-03-26T18:50:36.534Z,7.72
2023-03-26T18:53:06.630Z,10.23
2023-03-26T18:55:34.988Z,11.15
2023-03-26T18:58:20.764Z,7.55
2023-03-26T19:00:48.007Z,8.15
2023-03-26T19:03:18.707Z,8.98
2023-03-26T19:05:45.553Z,10.37
2023-03-26T19:08:12.337Z,8.02
2023-03-26T19:10:39.031Z,8.77
2023-03-26T19:13:05.541Z,7.80
2023-03-26T19:15:34.705Z,8.07
2023-03-26T19:18:04.979Z,7.70
2023-03-26T19:20:45.511Z,7.88
2023-03-26T19:23:21.172Z,8.25
2023-03-26T19:25:54.253Z,6.05
2023-03-26T19:28:25.103Z,5.40
2023-03-26T19:31:07.065Z,6.30
2023-03-26T19:33:36.883Z,4.75
2023-03-26T19:36:23.711Z,5.72
2023-03-26T19:38:52.471Z,5.20
2023-03-26T19:41:31.014Z,5.25
2023-03-26T19:44:03.019Z,4.37
2023-03-26T19:46:34.470Z,3.97
2023-03-26T19:49:33.418Z,5.03
2023-03-26T19:52:25.240Z,3.97
2023-03-26T19:55:20.591Z,4.45
2023-03-26T19:57:47.362Z,4.70
2023-03-26T20:00:14.288Z,4.10
2023-03-26T20:02:41.933Z,3.22
2023-03-26T20:05:34.671Z,3.35
2023-03-26T20:08:09.953Z,3.05
2023-03-26T20:10:37.219Z,3.00
2023-03-26T20:13:03.734Z,3.80
2023-03-26T20:15:34.316Z,3.53
2023-03-26T20:18:00.982Z,4.28
2023-03-26T20:20:27.620Z,7.13
2023-03-26T20:22:54.646Z,7.57
2023-03-26T20:25:28.703Z,6.93
2023-03-26T20:27:57.313Z,9.55
2023-03-26T20:30:36.793Z,8.50
2023-03-26T20:33:13.402Z,7.55
2023-03-26T20:35:40.613Z,7.73
2023-03-26T20:38:07.156Z,7.35
2023-03-26T20:40:33.640Z,7.40
2023-03-26T20:43:00.160Z,6.65
2023-03-26T20:45:26.718Z,7.80
2023-03-26T20:47:53.276Z,8.67
2023-03-26T20:50:22.054Z,10.27
2023-03-26T20:52:51.188Z,11.23
2023-03-26T20:55:20.100Z,11.13
2023-03-26T20:57:46.796Z,10.40
2023-03-26T21:00:15.788Z,11.97
2023-03-26T21:02:43.318Z,9.25
2023-03-26T21:05:13.591Z,11.15
2023-03-26T21:07:44.489Z,12.77
2023-03-26T21:10:13.052Z,13.63
2023-03-26T21:13:03.696Z,15.97
2023-03-26T21:15:30.624Z,12.60
2023-03-26T21:17:57.492Z,10.23
2023-03-26T21:20:25.747Z,11.13
2023-03-26T21:23:09.613Z,11.45
2023-03-26T21:25:48.694Z,10.20
2023-03-26T21:28:42.713Z,8.25
2023-03-26T21:31:21.070Z,8.10
2023-03-26T21:33:49.216Z,6.38
2023-03-26T21:36:18.132Z,8.07
2023-03-26T21:38:45.528Z,8.43
2023-03-26T21:41:24.234Z,10.57
2023-03-26T21:43:51.592Z,10.27
2023-03-26T21:46:18.670Z,12.05
2023-03-26T21:48:45.502Z,12.80
2023-03-26T21:51:12.387Z,13.30
2023-03-26T21:53:39.123Z,9.57
2023-03-26T21:56:32.914Z,8.02
2023-03-26T21:59:17.157Z,10.05
2023-03-26T22:02:19.648Z,8.32
2023-03-26T22:04:56.307Z,9.20
2023-03-26T22:07:27.693Z,8.63
2023-03-26T22:09:54.483Z,9.13
2023-03-26T22:12:21.028Z,9.27
2023-03-26T22:14:47.741Z,9.43
2023-03-26T22:17:14.593Z,10.03
2023-03-26T22:19:42.616Z,9.50
2023-03-26T22:22:09.290Z,9.38
2023-03-26T22:24:36.000Z,10.75
2023-03-26T22:27:02.684Z,13.82
2023-03-26T22:29:29.283Z,12.80
2023-03-26T22:31:55.814Z,14.57
2023-03-26T22:34:22.304Z,13.93
2023-03-26T22:36:48.854Z,12.77
2023-03-26T22:39:15.343Z,11.98
2023-03-26T22:41:42.545Z,14.07
2023-03-26T22:44:19.813Z,11.35
2023-03-26T22:46:47.146Z,14.27
2023-03-26T22:49:13.722Z,15.65
2023-03-26T22:51:40.212Z,14.70
2023-03-26T22:54:06.739Z,11.57
2023-03-26T22:56:33.326Z,13.25
2023-03-26T22:58:59.889Z,13.05
2023-03-26T23:01:26.381Z,13.32
2023-03-26T23:03:54.556Z,17.42
2023-03-26T23:06:21.084Z,14.53
2023-03-26T23:08:47.575Z,11.68
2023-03-26T23:11:16.589Z,11.82
2023-03-26T23:13:45.556Z,9.63
2023-03-26T23:16:13.422Z,9.32
2023-03-26T23:18:40.395Z,8.90
2023-03-26T23:21:12.604Z,8.30
2023-03-26T23:23:39.083Z,8.38
2023-03-26T23:26:06.084Z,8.10
2023-03-26T23:28:34.011Z,8.45
2023-03-26T23:31:04.863Z,8.07
2023-03-26T23:33:34.229Z,7.55
2023-03-26T23:36:03.816Z,6.05
2023-03-26T23:38:43.431Z,7.88
2023-03-26T23:41:11.479Z,7.93
2023-03-26T23:43:38.005Z,7.90
2023-03-26T23:46:04.699Z,7.00
2023-03-26T23:48:31.183Z,6.88
2023-03-26T23:51:03.174Z,6.78
2023-03-26T23:53:31.892Z,9.20
2023-03-26T23:55:58.493Z,6.13
2023-03-26T23:58:27.468Z,6.90
